Time;durP1;ratioP1;P1;durP2;ratioP2;P2;SDS_P1;SDS_P2;PMS_P1;PMS_P2;Temp;Humidity;BMP_temperature;BMP_pressure;BME280_temperature;BME280_humidity;BME280_pressure;Samples;Min_cycle;Max_cycle;Signal;HPM_P1;HPM_P2
2022/11/05 00:09:54;;;;;;;4.83;4.00;;;;;;;;;;5103948;28;20279;-29
2022/11/05 00:17:53;;;;;;;6.00;3.77;;;;;;;;;;5110044;28;20195;-32
2022/11/05 00:20:20;;;;;;;8.53;4.40;;;;;;;;;;5100061;28;20804;-34
2022/11/05 00:25:33;;;;;;;5.43;3.57;;;;;;;;;;5106923;28;20203;-33
2022/11/05 00:28:01;;;;;;;5.33;3.97;;;;;;;;;;5101870;28;20204;-30
2022/11/05 00:30:30;;;;;;;4.67;4.20;;;;;;;;;;5108251;28;20329;-34
2022/11/05 00:33:00;;;;;;;8.43;4.60;;;;;;;;;;5109809;28;20227;-32
2022/11/05 00:35:28;;;;;;;4.77;4.20;;;;;;;;;;5104722;28;20295;-32
2022/11/05 00:37:55;;;;;;;5.73;4.10;;;;;;;;;;5106597;28;20204;-28
2022/11/05 00:40:23;;;;;;;4.87;3.90;;;;;;;;;;5110675;28;20212;-32
2022/11/05 00:45:37;;;;;;;5.40;3.93;;;;;;;;;;5099828;28;20288;-32
2022/11/05 00:50:49;;;;;;;3.90;3.50;;;;;;;;;;5103674;28;20336;-32
2022/11/05 00:53:16;;;;;;;8.00;3.67;;;;;;;;;;5101929;28;20208;-32
2022/11/05 00:55:44;;;;;;;6.60;3.80;;;;;;;;;;5109403;28;20199;-31
2022/11/05 00:58:13;;;;;;;4.03;3.57;;;;;;;;;;5110736;28;20288;-33
2022/11/05 01:00:42;;;;;;;6.20;3.27;;;;;;;;;;5101436;28;20235;-32
2022/11/05 01:03:11;;;;;;;3.50;3.00;;;;;;;;;;5109960;28;20200;-32
2022/11/05 01:05:39;;;;;;;3.80;3.07;;;;;;;;;;5101401;28;20286;-31
2022/11/05 01:08:07;;;;;;;3.90;3.50;;;;;;;;;;5106169;28;20200;-33
2022/11/05 01:10:34;;;;;;;3.20;2.87;;;;;;;;;;5109723;28;20285;-32
2022/11/05 01:13:02;;;;;;;3.87;3.33;;;;;;;;;;5107843;28;20204;-31
2022/11/05 01:15:29;;;;;;;5.30;3.20;;;;;;;;;;5099695;28;20212;-32
2022/11/05 01:17:57;;;;;;;4.40;3.17;;;;;;;;;;5109211;28;20212;-30
2022/11/05 01:20:24;;;;;;;4.50;3.30;;;;;;;;;;5098699;28;20581;-31
2022/11/05 01:22:51;;;;;;;5.03;3.53;;;;;;;;;;5106360;28;20200;-35
2022/11/05 01:25:19;;;;;;;3.90;3.27;;;;;;;;;;5108496;28;20206;-29
2022/11/05 01:27:46;;;;;;;3.87;3.30;;;;;;;;;;5102184;28;20207;-32
2022/11/05 01:30:13;;;;;;;3.60;3.17;;;;;;;;;;5093127;28;20235;-31
2022/11/05 01:32:40;;;;;;;3.83;2.87;;;;;;;;;;5095157;28;20197;-35
2022/11/05 01:35:11;;;;;;;3.97;3.00;;;;;;;;;;5097587;28;20234;-30
2022/11/05 01:37:39;;;;;;;4.13;2.77;;;;;;;;;;5106076;28;20239;-32
2022/11/05 01:40:07;;;;;;;3.60;3.07;;;;;;;;;;5109497;28;20228;-33
2022/11/05 01:42:34;;;;;;;3.93;2.90;;;;;;;;;;5110488;28;20204;-32
2022/11/05 01:45:04;;;;;;;2.97;2.67;;;;;;;;;;5104984;28;20202;-32
2022/11/05 01:47:39;;;;;;;3.33;2.63;;;;;;;;;;5110872;28;20306;-30
2022/11/05 01:50:13;;;;;;;4.40;2.80;;;;;;;;;;5104258;28;20228;-34
2022/11/05 01:52:41;;;;;;;3.30;2.97;;;;;;;;;;5109191;28;20281;-34
2022/11/05 01:55:10;;;;;;;2.73;2.50;;;;;;;;;;5113089;28;20206;-31
2022/11/05 01:57:37;;;;;;;3.73;2.67;;;;;;;;;;5112639;28;20200;-31
2022/11/05 02:00:05;;;;;;;4.27;2.93;;;;;;;;;;5101948;28;20228;-32
2022/11/05 02:02:32;;;;;;;4.43;2.97;;;;;;;;;;5108545;28;20291;-34
2022/11/05 02:05:02;;;;;;;2.73;2.53;;;;;;;;;;5104016;28;20294;-28
2022/11/05 02:07:29;;;;;;;2.97;2.67;;;;;;;;;;5110199;28;20207;-33
2022/11/05 02:10:01;;;;;;;2.73;2.47;;;;;;;;;;5112629;28;20226;-31
2022/11/05 02:12:29;;;;;;;2.53;2.33;;;;;;;;;;5110613;28;20220;-34
2022/11/05 02:14:56;;;;;;;3.20;2.33;;;;;;;;;;5100941;28;20222;-28
2022/11/05 02:17:30;;;;;;;2.60;2.37;;;;;;;;;;5106063;28;20681;-32
2022/11/05 02:20:22;;;;;;;2.70;2.33;;;;;;;;;;5106168;28;20212;-29
2022/11/05 02:23:16;;;;;;;2.60;2.33;;;;;;;;;;5105386;28;20215;-32
2022/11/05 02:25:54;;;;;;;2.80;2.60;;;;;;;;;;5112398;28;20204;-34
2022/11/05 02:28:29;;;;;;;2.93;2.57;;;;;;;;;;5096635;28;20587;-30
2022/11/05 02:31:01;;;;;;;3.50;2.37;;;;;;;;;;5105997;28;20230;-30
2022/11/05 02:33:35;;;;;;;3.13;2.23;;;;;;;;;;5112771;28;20267;-31
2022/11/05 02:36:19;;;;;;;3.50;2.73;;;;;;;;;;5099822;28;20196;-31
2022/11/05 02:38:49;;;;;;;2.53;1.93;;;;;;;;;;5104343;28;20202;-31
2022/11/05 02:41:23;;;;;;;3.20;2.17;;;;;;;;;;5112508;28;20315;-30
2022/11/05 02:43:57;;;;;;;2.50;2.23;;;;;;;;;;5104615;28;20198;-32
2022/11/05 02:46:30;;;;;;;3.60;2.00;;;;;;;;;;5109355;28;20207;-31
2022/11/05 02:48:59;;;;;;;1.93;1.80;;;;;;;;;;5108336;28;20284;-35
2022/11/05 02:51:31;;;;;;;3.70;2.10;;;;;;;;;;5109460;28;20498;-28
2022/11/05 02:54:01;;;;;;;2.77;2.40;;;;;;;;;;5111942;28;20184;-32
2022/11/05 02:56:30;;;;;;;2.50;2.30;;;;;;;;;;5109355;28;20208;-34
2022/11/05 02:58:57;;;;;;;2.20;2.00;;;;;;;;;;5104950;28;20206;-30
2022/11/05 03:01:24;;;;;;;2.13;2.03;;;;;;;;;;5109717;28;20311;-32
2022/11/05 03:03:54;;;;;;;2.50;2.30;;;;;;;;;;5110205;28;20200;-32
2022/11/05 03:06:38;;;;;;;2.17;1.97;;;;;;;;;;5102938;28;20223;-31
2022/11/05 03:09:21;;;;;;;2.30;2.10;;;;;;;;;;5111484;28;20621;-31
2022/11/05 03:11:52;;;;;;;2.63;2.10;;;;;;;;;;5112279;28;20235;-30
2022/11/05 03:14:23;;;;;;;2.20;2.10;;;;;;;;;;5095414;28;20212;-33
2022/11/05 03:16:52;;;;;;;2.27;1.93;;;;;;;;;;5102858;28;20399;-33
2022/11/05 03:19:25;;;;;;;3.37;1.90;;;;;;;;;;5104731;28;20208;-30
2022/11/05 03:21:53;;;;;;;2.43;2.10;;;;;;;;;;5107840;28;20216;-30
2022/11/05 03:24:23;;;;;;;2.13;2.00;;;;;;;;;;5111609;28;20200;-33
2022/11/05 03:26:53;;;;;;;2.20;2.00;;;;;;;;;;5111420;28;20200;-34
2022/11/05 03:29:23;;;;;;;4.47;2.13;;;;;;;;;;5099195;28;20214;-31
2022/11/05 03:31:51;;;;;;;3.00;2.30;;;;;;;;;;5104552;28;20508;-29
2022/11/05 03:34:20;;;;;;;2.30;2.10;;;;;;;;;;5106218;28;20197;-30
2022/11/05 03:36:51;;;;;;;5.53;1.90;;;;;;;;;;5101537;28;20207;-30
2022/11/05 03:39:20;;;;;;;2.90;2.13;;;;;;;;;;5111725;28;20188;-31
2022/11/05 03:41:49;;;;;;;2.03;1.90;;;;;;;;;;5111689;28;20216;-31
2022/11/05 03:44:19;;;;;;;2.77;1.70;;;;;;;;;;5105579;28;20206;-29
2022/11/05 03:46:48;;;;;;;2.50;1.70;;;;;;;;;;5108685;28;20283;-29
2022/11/05 03:49:19;;;;;;;2.37;2.20;;;;;;;;;;5107761;28;20284;-31
2022/11/05 03:51:49;;;;;;;2.10;1.90;;;;;;;;;;5106007;28;20226;-31
2022/11/05 03:54:17;;;;;;;2.70;2.00;;;;;;;;;;5111914;28;20196;-31
2022/11/05 03:56:46;;;;;;;1.90;1.80;;;;;;;;;;5106496;28;20267;-28
2022/11/05 03:59:14;;;;;;;2.63;2.30;;;;;;;;;;5103449;28;20292;-32
2022/11/05 04:01:42;;;;;;;1.80;1.70;;;;;;;;;;5105516;28;20304;-30
2022/11/05 04:04:09;;;;;;;2.83;1.83;;;;;;;;;;5103787;28;20208;-31
2022/11/05 04:14:53;;;;;;;2.20;2.00;;;;;;;;;;5344487;22;20365;-40
2022/11/05 04:17:20;;;;;;;3.90;2.07;;;;;;;;;;5095153;28;20645;-43
2022/11/05 04:25:19;;;;;;;2.00;1.90;;;;;;;;;;5110816;28;20203;-42
2022/11/05 04:27:46;;;;;;;2.20;2.00;;;;;;;;;;5093855;28;20211;-40
2022/11/05 04:30:19;;;;;;;1.80;1.70;;;;;;;;;;5094215;28;20609;-41
2022/11/05 04:33:00;;;;;;;2.30;1.97;;;;;;;;;;5086639;28;20226;-44
2022/11/05 04:35:27;;;;;;;2.00;1.90;;;;;;;;;;5087145;28;20232;-42
2022/11/05 04:37:54;;;;;;;2.50;1.87;;;;;;;;;;5094825;28;20198;-42
2022/11/05 04:40:23;;;;;;;2.07;1.97;;;;;;;;;;5092496;28;20231;-44
2022/11/05 04:42:50;;;;;;;2.07;1.93;;;;;;;;;;5080808;28;20211;-44
2022/11/05 04:45:17;;;;;;;4.50;2.00;;;;;;;;;;5083987;28;20201;-44
2022/11/05 04:47:44;;;;;;;1.87;1.77;;;;;;;;;;5085436;28;20582;-41
2022/11/05 04:50:12;;;;;;;2.23;1.80;;;;;;;;;;5081003;28;20221;-44
2022/11/05 04:52:39;;;;;;;2.17;1.83;;;;;;;;;;5089932;28;20267;-43
2022/11/05 04:55:06;;;;;;;2.97;2.07;;;;;;;;;;5090051;28;20204;-43
2022/11/05 04:57:35;;;;;;;2.10;2.00;;;;;;;;;;5092417;28;20208;-41
2022/11/05 05:00:02;;;;;;;1.77;1.67;;;;;;;;;;5088536;28;20219;-44
2022/11/05 05:02:29;;;;;;;1.97;1.77;;;;;;;;;;5106485;28;20736;-43
2022/11/05 05:04:56;;;;;;;2.03;1.80;;;;;;;;;;5096951;28;20199;-44
2022/11/05 05:07:24;;;;;;;2.47;1.70;;;;;;;;;;5089856;28;20674;-39
2022/11/05 05:09:53;;;;;;;2.50;1.40;;;;;;;;;;5097369;28;20205;-42
2022/11/05 05:12:20;;;;;;;1.40;1.30;;;;;;;;;;5080981;28;20229;-42
2022/11/05 05:14:49;;;;;;;1.60;1.50;;;;;;;;;;5089360;28;20204;-44
2022/11/05 05:17:17;;;;;;;1.60;1.33;;;;;;;;;;5102459;28;20200;-38
2022/11/05 05:22:29;;;;;;;1.87;1.20;;;;;;;;;;5100222;28;20211;-40
2022/11/05 05:24:56;;;;;;;1.30;1.20;;;;;;;;;;5094651;28;20206;-44
2022/11/05 05:27:24;;;;;;;3.80;1.33;;;;;;;;;;5086466;28;20204;-43
2022/11/05 05:29:53;;;;;;;1.30;1.20;;;;;;;;;;5091718;28;20203;-42
2022/11/05 05:32:20;;;;;;;1.00;1.00;;;;;;;;;;5101928;28;20255;-42
2022/11/05 05:34:47;;;;;;;1.07;1.00;;;;;;;;;;5097220;28;20204;-39
2022/11/05 05:37:14;;;;;;;1.40;1.30;;;;;;;;;;5097236;28;20211;-41
2022/11/05 05:39:43;;;;;;;1.60;1.50;;;;;;;;;;5105502;28;20210;-43
2022/11/05 05:42:10;;;;;;;2.60;1.47;;;;;;;;;;5114724;28;20196;-37
2022/11/05 05:44:37;;;;;;;1.83;1.73;;;;;;;;;;5092303;28;20673;-42
2022/11/05 05:47:06;;;;;;;2.40;1.50;;;;;;;;;;5101081;28;20210;-42
2022/11/05 05:49:33;;;;;;;2.67;1.87;;;;;;;;;;5087022;28;20212;-40
2022/11/05 05:52:00;;;;;;;1.63;1.53;;;;;;;;;;5089220;28;20337;-40
2022/11/05 05:54:27;;;;;;;1.70;1.50;;;;;;;;;;5102562;28;20279;-43
2022/11/05 05:56:55;;;;;;;4.23;1.77;;;;;;;;;;5093212;28;20207;-44
2022/11/05 05:59:23;;;;;;;2.67;1.30;;;;;;;;;;5089514;28;20204;-45
2022/11/05 06:01:50;;;;;;;1.77;1.50;;;;;;;;;;5103992;28;20220;-43
2022/11/05 06:04:19;;;;;;;1.23;1.20;;;;;;;;;;5100115;28;20205;-41
2022/11/05 06:06:47;;;;;;;1.63;1.53;;;;;;;;;;5088055;28;20204;-42
2022/11/05 06:09:14;;;;;;;1.57;1.20;;;;;;;;;;5095505;28;20216;-40
2022/11/05 06:11:41;;;;;;;1.30;1.20;;;;;;;;;;5082589;28;20281;-40
2022/11/05 06:14:10;;;;;;;1.97;1.50;;;;;;;;;;5077251;28;20236;-39
2022/11/05 06:16:37;;;;;;;1.27;1.20;;;;;;;;;;5090902;28;20216;-44
2022/11/05 06:19:06;;;;;;;1.23;1.13;;;;;;;;;;5084771;28;20275;-45
2022/11/05 06:21:34;;;;;;;1.60;1.50;;;;;;;;;;5088423;28;20293;-42
2022/11/05 06:24:02;;;;;;;2.60;1.27;;;;;;;;;;5113626;28;20208;-44
2022/11/05 06:26:29;;;;;;;2.07;1.60;;;;;;;;;;5099800;28;20665;-40
2022/11/05 06:28:56;;;;;;;1.23;1.10;;;;;;;;;;5082141;28;20204;-42
2022/11/05 06:31:24;;;;;;;1.70;1.30;;;;;;;;;;5065193;28;20229;-37
2022/11/05 06:33:51;;;;;;;1.53;1.43;;;;;;;;;;5082102;28;20576;-43
2022/11/05 06:36:19;;;;;;;1.30;1.20;;;;;;;;;;5087866;28;20207;-40
2022/11/05 06:38:47;;;;;;;1.50;1.30;;;;;;;;;;5080005;28;20197;-41
2022/11/05 06:41:14;;;;;;;1.03;1.03;;;;;;;;;;5080360;28;20351;-38
2022/11/05 06:43:41;;;;;;;1.50;1.40;;;;;;;;;;5087723;28;20285;-41
2022/11/05 06:46:10;;;;;;;2.00;1.00;;;;;;;;;;5082680;28;20204;-42
2022/11/05 06:48:37;;;;;;;2.93;1.40;;;;;;;;;;5091744;28;20212;-39
2022/11/05 06:51:05;;;;;;;1.23;1.03;;;;;;;;;;5082251;28;20347;-43
2022/11/05 06:53:32;;;;;;;2.57;1.37;;;;;;;;;;5092562;28;20221;-39
2022/11/05 06:56:03;;;;;;;2.27;1.10;;;;;;;;;;5091079;28;20216;-44
2022/11/05 06:58:31;;;;;;;1.10;1.00;;;;;;;;;;5073985;28;20291;-38
2022/11/05 07:01:01;;;;;;;1.03;1.03;;;;;;;;;;5101041;28;20226;-43
2022/11/05 07:03:28;;;;;;;1.10;1.10;;;;;;;;;;5116141;28;20188;-39
2022/11/05 07:05:57;;;;;;;1.40;1.30;;;;;;;;;;5089621;28;20208;-38
2022/11/05 07:08:24;;;;;;;1.17;1.10;;;;;;;;;;5093541;28;20658;-41
2022/11/05 07:10:51;;;;;;;1.70;1.40;;;;;;;;;;5095250;28;20224;-39
2022/11/05 07:13:20;;;;;;;1.50;1.40;;;;;;;;;;5094975;28;20223;-43
2022/11/05 07:15:47;;;;;;;1.40;1.30;;;;;;;;;;5074703;28;20578;-37
2022/11/05 07:18:14;;;;;;;2.10;1.40;;;;;;;;;;5091024;28;20209;-36
2022/11/05 07:20:41;;;;;;;1.80;1.70;;;;;;;;;;5096637;28;20216;-42
2022/11/05 07:23:10;;;;;;;2.43;1.53;;;;;;;;;;5106398;28;20741;-43
2022/11/05 07:25:38;;;;;;;2.00;1.40;;;;;;;;;;5112175;28;20204;-41
2022/11/05 07:28:05;;;;;;;1.67;1.57;;;;;;;;;;5085821;28;20293;-34
2022/11/05 07:30:34;;;;;;;1.93;1.83;;;;;;;;;;5106732;28;20226;-41
2022/11/05 07:33:01;;;;;;;2.00;1.50;;;;;;;;;;5107901;28;20310;-41
2022/11/05 07:35:29;;;;;;;1.60;1.40;;;;;;;;;;5088704;28;20292;-42
2022/11/05 07:37:56;;;;;;;1.30;1.20;;;;;;;;;;5106784;28;20203;-40
2022/11/05 07:40:24;;;;;;;1.50;1.40;;;;;;;;;;5114086;28;20219;-40
2022/11/05 07:42:52;;;;;;;1.50;1.33;;;;;;;;;;5103258;28;20198;-38
2022/11/05 07:45:20;;;;;;;2.03;1.60;;;;;;;;;;5094254;28;20288;-39
2022/11/05 07:47:49;;;;;;;1.67;1.57;;;;;;;;;;5096623;28;20211;-38
2022/11/05 07:50:16;;;;;;;3.13;1.67;;;;;;;;;;5094139;28;20228;-41
2022/11/05 07:52:44;;;;;;;2.40;2.20;;;;;;;;;;5101470;28;20224;-45
2022/11/05 07:55:12;;;;;;;2.57;2.37;;;;;;;;;;5098035;28;20197;-40
2022/11/05 07:57:42;;;;;;;3.30;2.53;;;;;;;;;;5086652;28;20212;-42
2022/11/05 08:00:11;;;;;;;2.50;2.30;;;;;;;;;;5090322;28;20309;-38
2022/11/05 08:02:38;;;;;;;2.73;2.40;;;;;;;;;;5095688;28;20193;-45
2022/11/05 08:05:07;;;;;;;2.70;2.50;;;;;;;;;;5087643;28;20203;-42
2022/11/05 08:07:34;;;;;;;3.03;2.73;;;;;;;;;;5097111;28;20290;-42
2022/11/05 08:10:03;;;;;;;2.83;2.53;;;;;;;;;;5107457;28;20248;-41
2022/11/05 08:12:30;;;;;;;4.30;3.10;;;;;;;;;;5113972;28;20220;-42
2022/11/05 08:14:57;;;;;;;4.57;3.50;;;;;;;;;;5084554;28;20532;-44
2022/11/05 08:17:24;;;;;;;5.30;3.10;;;;;;;;;;5076299;28;20201;-38
2022/11/05 08:19:51;;;;;;;5.57;3.37;;;;;;;;;;5087040;28;20211;-43
2022/11/05 08:22:20;;;;;;;3.67;3.23;;;;;;;;;;5085602;28;20211;-41
2022/11/05 08:24:47;;;;;;;4.80;3.50;;;;;;;;;;5072827;28;20211;-43
2022/11/05 08:27:21;;;;;;;3.67;3.17;;;;;;;;;;5087039;28;20200;-41
2022/11/05 08:29:48;;;;;;;4.60;3.27;;;;;;;;;;5086926;28;20191;-44
2022/11/05 08:32:15;;;;;;;4.70;2.97;;;;;;;;;;5096619;28;20291;-40
2022/11/05 08:34:42;;;;;;;3.60;3.23;;;;;;;;;;5102257;28;20214;-39
2022/11/05 08:37:10;;;;;;;4.43;3.87;;;;;;;;;;5088525;28;20207;-37
2022/11/05 08:39:38;;;;;;;7.23;4.00;;;;;;;;;;5111486;28;20196;-40
2022/11/05 08:42:05;;;;;;;5.50;4.57;;;;;;;;;;5108555;28;20203;-39
2022/11/05 08:44:33;;;;;;;4.17;3.63;;;;;;;;;;5089271;28;20227;-44
2022/11/05 08:47:00;;;;;;;5.00;3.87;;;;;;;;;;5091619;28;20600;-41
2022/11/05 08:49:27;;;;;;;4.77;3.83;;;;;;;;;;5081121;28;20211;-42
2022/11/05 08:51:54;;;;;;;5.77;4.30;;;;;;;;;;5077186;28;20830;-43
2022/11/05 08:54:21;;;;;;;5.57;4.53;;;;;;;;;;5089751;28;20307;-43
2022/11/05 08:56:50;;;;;;;9.87;6.30;;;;;;;;;;5113474;28;20200;-38
2022/11/05 08:59:17;;;;;;;8.23;5.93;;;;;;;;;;5107904;28;20315;-41
2022/11/05 09:01:44;;;;;;;6.93;5.10;;;;;;;;;;5099528;28;20251;-44
2022/11/05 09:04:11;;;;;;;8.47;6.20;;;;;;;;;;5093035;28;20393;-41
2022/11/05 09:06:38;;;;;;;12.53;8.53;;;;;;;;;;5095047;28;20229;-43
2022/11/05 09:09:05;;;;;;;13.97;9.23;;;;;;;;;;5103744;28;20207;-44
2022/11/05 09:11:32;;;;;;;12.00;8.53;;;;;;;;;;5100584;28;20220;-44
2022/11/05 09:14:01;;;;;;;13.10;9.03;;;;;;;;;;5086533;28;20678;-38
2022/11/05 09:16:33;;;;;;;11.77;9.50;;;;;;;;;;5090813;28;20614;-38
2022/11/05 09:19:02;;;;;;;12.53;8.70;;;;;;;;;;5086027;28;20295;-35
2022/11/05 09:21:29;;;;;;;10.07;7.40;;;;;;;;;;5086824;28;20272;-44
2022/11/05 09:23:56;;;;;;;9.90;7.10;;;;;;;;;;5098682;28;20220;-41
2022/11/05 09:26:23;;;;;;;8.93;6.47;;;;;;;;;;5091983;28;20291;-42
2022/11/05 09:28:51;;;;;;;8.37;5.90;;;;;;;;;;5086796;28;20207;-37
2022/11/05 09:31:19;;;;;;;7.73;5.37;;;;;;;;;;5084446;28;20319;-38
2022/11/05 09:33:46;;;;;;;7.03;5.53;;;;;;;;;;5101834;28;20219;-41
2022/11/05 09:36:13;;;;;;;6.40;4.77;;;;;;;;;;5083983;28;20655;-40
2022/11/05 09:38:40;;;;;;;5.87;4.30;;;;;;;;;;5100212;28;20453;-40
2022/11/05 09:41:09;;;;;;;5.53;4.33;;;;;;;;;;5092424;28;20247;-40
2022/11/05 09:43:38;;;;;;;6.20;4.47;;;;;;;;;;5086401;28;20205;-37
2022/11/05 09:46:13;;;;;;;7.67;4.47;;;;;;;;;;5091069;28;20209;-39
2022/11/05 09:48:45;;;;;;;6.10;4.30;;;;;;;;;;5107833;28;20203;-39
2022/11/05 09:51:15;;;;;;;6.10;3.93;;;;;;;;;;5089277;28;20723;-41
2022/11/05 09:53:42;;;;;;;6.60;4.00;;;;;;;;;;5104803;28;20223;-40
2022/11/05 09:56:16;;;;;;;6.03;4.07;;;;;;;;;;5091035;28;20205;-40
2022/11/05 09:58:47;;;;;;;4.33;3.77;;;;;;;;;;5087947;28;20647;-39
2022/11/05 10:01:16;;;;;;;4.13;3.40;;;;;;;;;;5100605;28;20224;-38
2022/11/05 10:03:46;;;;;;;4.03;3.30;;;;;;;;;;5093638;28;20554;-39
2022/11/05 10:06:15;;;;;;;4.27;3.40;;;;;;;;;;5093424;28;20292;-35
2022/11/05 10:08:43;;;;;;;3.20;2.87;;;;;;;;;;5094560;28;20203;-40
2022/11/05 10:11:14;;;;;;;4.53;3.53;;;;;;;;;;5096859;28;20252;-45
2022/11/05 10:13:42;;;;;;;4.50;3.60;;;;;;;;;;5084632;28;20220;-41
2022/11/05 10:16:16;;;;;;;4.33;3.00;;;;;;;;;;5349386;22;20252;-29
2022/11/05 10:18:47;;;;;;;4.00;3.13;;;;;;;;;;5077146;28;20291;-33
2022/11/05 10:21:17;;;;;;;6.03;3.87;;;;;;;;;;5078986;28;20235;-34
2022/11/05 10:23:45;;;;;;;3.23;2.93;;;;;;;;;;5086550;28;20224;-35
2022/11/05 10:26:13;;;;;;;3.30;3.00;;;;;;;;;;5093878;28;20287;-32
2022/11/05 10:28:40;;;;;;;4.40;2.90;;;;;;;;;;5078919;28;20217;-31
2022/11/05 10:31:09;;;;;;;3.50;3.00;;;;;;;;;;5065786;28;20724;-35
2022/11/05 10:33:40;;;;;;;3.83;3.10;;;;;;;;;;5092136;28;20222;-33
2022/11/05 10:36:11;;;;;;;3.77;2.90;;;;;;;;;;5074378;28;20348;-32
2022/11/05 10:38:39;;;;;;;3.60;3.20;;;;;;;;;;5088139;28;20304;-34
2022/11/05 10:41:12;;;;;;;5.20;3.00;;;;;;;;;;5071938;28;20221;-29
2022/11/05 10:43:43;;;;;;;4.73;3.53;;;;;;;;;;5068978;28;20296;-30
2022/11/05 10:46:18;;;;;;;4.30;3.67;;;;;;;;;;5075949;28;20201;-33
2022/11/05 10:48:50;;;;;;;4.60;4.20;;;;;;;;;;5071115;28;20229;-30
2022/11/05 10:51:19;;;;;;;5.33;4.07;;;;;;;;;;5070133;28;20226;-33
2022/11/05 10:53:50;;;;;;;4.53;4.10;;;;;;;;;;5074011;28;20304;-36
2022/11/05 10:56:31;;;;;;;5.23;4.00;;;;;;;;;;5075353;28;20247;-34
2022/11/05 10:58:59;;;;;;;6.97;4.70;;;;;;;;;;5065949;28;20363;-36
2022/11/05 11:01:26;;;;;;;5.23;4.17;;;;;;;;;;5069116;28;20226;-35
2022/11/05 11:04:04;;;;;;;8.97;4.93;;;;;;;;;;5072542;28;20204;-34
2022/11/05 11:06:36;;;;;;;5.20;4.30;;;;;;;;;;5075683;28;20202;-33
2022/11/05 11:09:06;;;;;;;5.37;4.87;;;;;;;;;;5080112;28;20196;-33
2022/11/05 11:11:35;;;;;;;6.10;5.00;;;;;;;;;;5073978;28;20225;-33
2022/11/05 11:14:04;;;;;;;4.33;3.93;;;;;;;;;;5068120;28;20619;-33
2022/11/05 11:16:34;;;;;;;9.13;4.80;;;;;;;;;;5066220;28;20217;-34
2022/11/05 11:19:02;;;;;;;6.17;4.20;;;;;;;;;;5067242;28;20245;-37
2022/11/05 11:21:30;;;;;;;7.60;4.60;;;;;;;;;;5071236;28;20224;-36
2022/11/05 11:23:59;;;;;;;6.73;4.77;;;;;;;;;;5059471;28;20669;-36
2022/11/05 11:26:28;;;;;;;6.07;4.70;;;;;;;;;;5073461;28;20241;-35
2022/11/05 11:28:57;;;;;;;7.10;5.17;;;;;;;;;;5074017;28;20204;-34
2022/11/05 11:31:25;;;;;;;6.57;5.30;;;;;;;;;;5087735;28;20604;-33
2022/11/05 11:33:57;;;;;;;9.27;4.90;;;;;;;;;;5087932;28;20295;-33
2022/11/05 11:36:27;;;;;;;6.23;5.20;;;;;;;;;;5071202;28;20417;-36
2022/11/05 11:39:00;;;;;;;8.47;5.70;;;;;;;;;;5084216;28;20269;-34
2022/11/05 11:41:30;;;;;;;7.43;5.57;;;;;;;;;;5070141;28;20233;-31
2022/11/05 11:44:00;;;;;;;9.53;6.10;;;;;;;;;;5076908;28;20280;-33
2022/11/05 11:46:31;;;;;;;10.13;6.07;;;;;;;;;;5075216;28;20205;-36
2022/11/05 11:48:58;;;;;;;7.20;5.77;;;;;;;;;;5074194;28;20285;-33
2022/11/05 11:51:30;;;;;;;7.57;6.37;;;;;;;;;;5060730;28;20313;-34
2022/11/05 11:53:58;;;;;;;8.47;5.50;;;;;;;;;;5075001;28;20227;-32
2022/11/05 11:56:27;;;;;;;7.93;6.00;;;;;;;;;;5074206;28;20209;-31
2022/11/05 11:58:56;;;;;;;7.67;5.10;;;;;;;;;;5063895;28;20293;-37
2022/11/05 12:01:44;;;;;;;8.13;5.93;;;;;;;;;;5080861;28;20231;-31
2022/11/05 12:04:19;;;;;;;8.00;5.63;;;;;;;;;;5073210;28;20588;-31
2022/11/05 12:06:49;;;;;;;6.60;5.43;;;;;;;;;;5076430;28;20204;-31
2022/11/05 12:09:21;;;;;;;8.50;5.03;;;;;;;;;;5091303;28;20192;-37
2022/11/05 12:11:55;;;;;;;6.17;5.03;;;;;;;;;;5073767;28;20302;-33
2022/11/05 12:14:28;;;;;;;6.67;5.23;;;;;;;;;;5061224;28;20226;-32
2022/11/05 12:17:10;;;;;;;6.00;5.00;;;;;;;;;;5164076;22;20231;-31
2022/11/05 12:19:56;;;;;;;6.83;4.93;;;;;;;;;;5082020;28;20213;-32
2022/11/05 12:22:29;;;;;;;7.27;5.03;;;;;;;;;;5083989;28;20212;-32
2022/11/05 12:25:06;;;;;;;5.23;4.67;;;;;;;;;;5077814;28;20203;-32
2022/11/05 12:27:38;;;;;;;6.10;5.00;;;;;;;;;;5085119;28;20216;-30
2022/11/05 12:30:08;;;;;;;6.27;4.43;;;;;;;;;;5086227;28;20220;-30
2022/11/05 12:32:50;;;;;;;6.20;4.30;;;;;;;;;;5078311;28;20205;-31
2022/11/05 12:35:38;;;;;;;7.60;4.63;;;;;;;;;;5079636;28;20224;-34
2022/11/05 12:38:08;;;;;;;6.77;4.70;;;;;;;;;;5082750;28;20200;-33
2022/11/05 12:40:50;;;;;;;5.53;4.83;;;;;;;;;;5085937;28;20230;-33
2022/11/05 12:43:24;;;;;;;6.50;4.53;;;;;;;;;;5082625;28;20204;-30
2022/11/05 12:45:54;;;;;;;6.27;4.50;;;;;;;;;;5090858;28;20295;-33
2022/11/05 12:48:31;;;;;;;6.93;4.50;;;;;;;;;;5097972;28;20200;-31
2022/11/05 12:51:02;;;;;;;6.93;5.03;;;;;;;;;;5081429;28;20322;-32
2022/11/05 12:53:46;;;;;;;6.80;4.60;;;;;;;;;;5098937;28;20228;-31
2022/11/05 12:56:15;;;;;;;6.13;4.60;;;;;;;;;;5110478;28;20237;-33
2022/11/05 12:58:46;;;;;;;7.47;4.70;;;;;;;;;;5083644;28;20207;-30
2022/11/05 13:01:15;;;;;;;5.87;4.50;;;;;;;;;;5089319;28;20369;-35
2022/11/05 13:03:43;;;;;;;6.53;4.67;;;;;;;;;;5098749;28;20200;-35
2022/11/05 13:06:12;;;;;;;5.63;4.77;;;;;;;;;;5082253;28;20210;-32
2022/11/05 13:08:42;;;;;;;7.43;4.87;;;;;;;;;;5106804;28;20268;-33
2022/11/05 13:11:14;;;;;;;5.10;4.17;;;;;;;;;;5096956;28;20231;-31
2022/11/05 13:13:44;;;;;;;8.10;4.50;;;;;;;;;;5088790;28;20654;-36
2022/11/05 13:16:14;;;;;;;6.37;4.77;;;;;;;;;;5080849;28;20216;-33
2022/11/05 13:18:45;;;;;;;10.20;5.17;;;;;;;;;;5098438;28;20250;-32
2022/11/05 13:21:12;;;;;;;6.33;4.73;;;;;;;;;;5081305;28;20280;-30
2022/11/05 13:23:41;;;;;;;7.33;5.63;;;;;;;;;;5091838;28;20295;-33
2022/11/05 13:26:11;;;;;;;8.00;4.63;;;;;;;;;;5112131;28;20200;-30
2022/11/05 13:28:44;;;;;;;7.37;4.63;;;;;;;;;;5085825;28;20280;-36
2022/11/05 13:31:14;;;;;;;9.33;5.77;;;;;;;;;;5083169;28;20227;-35
2022/11/05 13:33:43;;;;;;;5.93;4.73;;;;;;;;;;5090376;28;20197;-32
2022/11/05 13:39:05;;;;;;;7.33;5.43;;;;;;;;;;5087452;28;20290;-35
2022/11/05 13:41:38;;;;;;;7.23;4.70;;;;;;;;;;5094252;28;20224;-33
2022/11/05 13:44:13;;;;;;;5.40;4.57;;;;;;;;;;5083175;28;20291;-29
2022/11/05 13:46:47;;;;;;;8.00;4.77;;;;;;;;;;5092035;28;20238;-31
2022/11/05 13:49:33;;;;;;;7.00;5.00;;;;;;;;;;5090011;28;20201;-31
2022/11/05 13:52:19;;;;;;;6.63;5.00;;;;;;;;;;5086328;28;20227;-32
2022/11/05 13:54:55;;;;;;;8.17;4.50;;;;;;;;;;5112785;28;20220;-35
2022/11/05 13:57:33;;;;;;;8.23;5.27;;;;;;;;;;5115163;28;20188;-33
2022/11/05 14:00:04;;;;;;;7.17;5.30;;;;;;;;;;5090097;28;20223;-33
2022/11/05 14:02:37;;;;;;;6.30;4.80;;;;;;;;;;5102386;28;20214;-32
2022/11/05 14:05:06;;;;;;;8.43;4.93;;;;;;;;;;5095639;28;20215;-31
2022/11/05 14:07:35;;;;;;;10.23;5.37;;;;;;;;;;5105142;28;20203;-34
2022/11/05 14:10:06;;;;;;;9.77;5.73;;;;;;;;;;5103238;28;20228;-37
2022/11/05 14:12:35;;;;;;;7.23;5.40;;;;;;;;;;5089110;28;20309;-31
2022/11/05 14:15:04;;;;;;;8.17;5.67;;;;;;;;;;5092559;28;20220;-29
2022/11/05 14:17:54;;;;;;;7.97;5.17;;;;;;;;;;5092917;28;20216;-29
2022/11/05 14:20:26;;;;;;;7.30;5.40;;;;;;;;;;5083052;28;20232;-31
2022/11/05 14:22:53;;;;;;;5.20;4.03;;;;;;;;;;5088759;28;20204;-30
2022/11/05 14:25:39;;;;;;;7.20;4.70;;;;;;;;;;5101008;28;20201;-30
2022/11/05 14:28:21;;;;;;;8.00;5.13;;;;;;;;;;5090507;28;20196;-31
2022/11/05 14:30:48;;;;;;;6.57;5.13;;;;;;;;;;5102719;28;20224;-33
2022/11/05 14:33:18;;;;;;;6.07;4.83;;;;;;;;;;5092937;28;20260;-30
2022/11/05 14:35:45;;;;;;;8.33;4.87;;;;;;;;;;5079242;28;20223;-34
2022/11/05 14:38:19;;;;;;;7.30;4.53;;;;;;;;;;5091473;28;20201;-33
2022/11/05 14:40:46;;;;;;;9.20;5.10;;;;;;;;;;5091564;28;20251;-33
2022/11/05 14:43:21;;;;;;;7.20;5.00;;;;;;;;;;5083537;28;20197;-30
2022/11/05 14:45:55;;;;;;;6.57;4.90;;;;;;;;;;5094481;28;20291;-31
2022/11/05 14:48:31;;;;;;;7.97;5.10;;;;;;;;;;5096084;28;20203;-28
2022/11/05 14:50:58;;;;;;;9.30;5.50;;;;;;;;;;5090606;28;20223;-30
2022/11/05 14:53:27;;;;;;;8.57;4.97;;;;;;;;;;5088995;28;20196;-28
2022/11/05 14:55:59;;;;;;;7.43;4.80;;;;;;;;;;5072467;28;20225;-33
2022/11/05 14:58:28;;;;;;;8.30;5.03;;;;;;;;;;5071022;28;20209;-34
2022/11/05 15:00:56;;;;;;;6.97;5.63;;;;;;;;;;5089545;28;20216;-29
2022/11/05 15:03:32;;;;;;;8.67;4.90;;;;;;;;;;5092956;28;20257;-30
2022/11/05 15:06:05;;;;;;;7.63;4.10;;;;;;;;;;5079548;28;20208;-29
2022/11/05 15:08:36;;;;;;;6.90;4.87;;;;;;;;;;5093337;28;20204;-31
2022/11/05 15:11:09;;;;;;;5.47;4.20;;;;;;;;;;5098320;28;20220;-28
2022/11/05 15:13:38;;;;;;;7.93;4.83;;;;;;;;;;5091403;28;20299;-38
2022/11/05 15:16:06;;;;;;;8.70;4.53;;;;;;;;;;5088953;28;20220;-33
2022/11/05 15:36:24;;;;;;;7.30;3.80;;;;;;;;;;5639154;22;20243;31
2022/11/05 15:41:32;;;;;;;7.57;4.00;;;;;;;;;;6023507;22;20463;-33
2022/11/05 15:44:01;;;;;;;7.43;4.30;;;;;;;;;;5073262;28;20202;-29
2022/11/05 15:46:29;;;;;;;5.10;4.00;;;;;;;;;;5074864;28;20193;-36
2022/11/05 15:48:59;;;;;;;6.70;5.17;;;;;;;;;;5076261;28;20208;-32
2022/11/05 15:51:26;;;;;;;6.23;4.70;;;;;;;;;;5079113;28;20244;-31
2022/11/05 15:53:58;;;;;;;6.13;4.53;;;;;;;;;;5074415;28;20203;-31
2022/11/05 15:56:27;;;;;;;6.10;4.73;;;;;;;;;;5083082;28;20228;-29
2022/11/05 15:58:56;;;;;;;4.93;3.73;;;;;;;;;;5076504;28;20208;-28
2022/11/05 16:01:26;;;;;;;7.73;4.90;;;;;;;;;;5069227;28;20256;-33